Time;durP1;ratioP1;P1;durP2;ratioP2;P2;SDS_P1;SDS_P2;PMS_P1;PMS_P2;Temp;Humidity;BMP_temperature;BMP_pressure;BME280_temperature;BME280_humidity;BME280_pressure;Samples;Min_cycle;Max_cycle;Signal;HPM_P1;HPM_P2
2024/01/17 00:00:54;;;;;;;17.27;9.57;;;;;;;;;;5075481;28;20440;-82
2024/01/17 00:03:22;;;;;;;18.70;8.88;;;;;;;;;;5076510;28;20186;-83
2024/01/17 00:05:49;;;;;;;16.63;8.90;;;;;;;;;;5075993;28;20049;-82
2024/01/17 00:08:16;;;;;;;14.85;8.63;;;;;;;;;;5076313;28;20052;-83
2024/01/17 00:10:44;;;;;;;17.00;9.57;;;;;;;;;;5078497;28;20498;-84
2024/01/17 00:13:12;;;;;;;19.27;8.45;;;;;;;;;;5075886;28;20048;-83
2024/01/17 00:15:39;;;;;;;17.83;8.95;;;;;;;;;;5075795;28;20048;-84
2024/01/17 00:18:06;;;;;;;17.48;8.70;;;;;;;;;;5076280;28;20048;-83
2024/01/17 00:20:34;;;;;;;18.42;9.18;;;;;;;;;;5076230;28;20048;-85
2024/01/17 00:23:01;;;;;;;17.85;9.27;;;;;;;;;;5075793;28;20541;-83
2024/01/17 00:25:28;;;;;;;19.50;8.73;;;;;;;;;;5076961;28;20071;-84
2024/01/17 00:27:55;;;;;;;18.35;9.35;;;;;;;;;;5077170;28;20044;-82
2024/01/17 00:30:23;;;;;;;17.30;9.20;;;;;;;;;;5076562;28;20053;-83
2024/01/17 00:32:50;;;;;;;18.70;9.85;;;;;;;;;;5076220;28;20044;-83
2024/01/17 00:35:18;;;;;;;16.67;9.25;;;;;;;;;;5076248;28;20110;-83
2024/01/17 00:37:45;;;;;;;17.70;9.30;;;;;;;;;;5076591;28;20094;-83
2024/01/17 00:40:14;;;;;;;16.90;9.07;;;;;;;;;;5077544;28;20102;-84
2024/01/17 00:42:41;;;;;;;18.40;8.73;;;;;;;;;;5078671;28;20108;-83
2024/01/17 00:45:10;;;;;;;18.77;7.90;;;;;;;;;;5076996;28;20064;-83
2024/01/17 00:47:37;;;;;;;16.08;8.80;;;;;;;;;;5078369;28;20056;-83
2024/01/17 00:50:05;;;;;;;15.85;7.78;;;;;;;;;;5085496;28;20052;-82
2024/01/17 00:52:33;;;;;;;17.42;8.30;;;;;;;;;;5089162;28;20040;-82
2024/01/17 00:55:00;;;;;;;14.68;8.05;;;;;;;;;;5087749;28;20098;-82
2024/01/17 00:57:27;;;;;;;18.27;8.70;;;;;;;;;;5084480;28;20108;-82
2024/01/17 00:59:55;;;;;;;17.60;8.82;;;;;;;;;;5084686;28;20044;-82
2024/01/17 01:02:22;;;;;;;15.68;8.35;;;;;;;;;;5083823;28;20048;-82
2024/01/17 01:04:49;;;;;;;14.55;7.88;;;;;;;;;;5083241;28;20049;-82
2024/01/17 01:07:17;;;;;;;12.00;7.55;;;;;;;;;;5084286;28;20053;-82
2024/01/17 01:09:44;;;;;;;21.27;8.13;;;;;;;;;;5084786;28;20053;-82
2024/01/17 01:12:12;;;;;;;13.60;7.88;;;;;;;;;;5084611;28;20056;-82
2024/01/17 01:14:39;;;;;;;17.52;8.57;;;;;;;;;;5082728;28;20049;-82
2024/01/17 01:17:06;;;;;;;15.60;8.13;;;;;;;;;;5082345;28;20132;-81
2024/01/17 01:19:33;;;;;;;11.85;7.43;;;;;;;;;;5080140;28;20044;-82
2024/01/17 01:22:01;;;;;;;16.98;7.82;;;;;;;;;;5081416;28;20048;-82
2024/01/17 01:24:28;;;;;;;13.80;7.97;;;;;;;;;;5082801;28;20122;-81
2024/01/17 01:26:55;;;;;;;16.48;8.82;;;;;;;;;;5074540;28;20102;-82
2024/01/17 01:29:22;;;;;;;16.30;9.43;;;;;;;;;;5083306;28;20143;-82
2024/01/17 01:31:49;;;;;;;15.23;8.25;;;;;;;;;;5082658;28;20048;-84
2024/01/17 01:34:17;;;;;;;20.13;8.50;;;;;;;;;;5082207;28;20041;-82
2024/01/17 01:36:44;;;;;;;16.60;7.80;;;;;;;;;;5082308;28;20075;-82
2024/01/17 01:39:11;;;;;;;17.65;7.85;;;;;;;;;;5082769;28;20044;-82
2024/01/17 01:41:39;;;;;;;17.17;8.23;;;;;;;;;;5082521;28;20083;-82
2024/01/17 01:44:06;;;;;;;15.27;7.90;;;;;;;;;;5085857;28;20068;-82
2024/01/17 01:46:33;;;;;;;15.82;7.95;;;;;;;;;;5084545;28;20045;-82
2024/01/17 01:49:01;;;;;;;18.05;8.13;;;;;;;;;;5082838;28;20049;-82
2024/01/17 01:51:29;;;;;;;13.98;7.75;;;;;;;;;;5082599;28;20562;-82
2024/01/17 01:53:58;;;;;;;14.45;7.82;;;;;;;;;;5083432;28;20044;-82
2024/01/17 01:56:27;;;;;;;19.02;7.95;;;;;;;;;;5081968;28;20048;-82
2024/01/17 01:58:55;;;;;;;12.05;7.20;;;;;;;;;;5082624;28;20413;-82
2024/01/17 02:01:25;;;;;;;15.43;7.32;;;;;;;;;;5081593;28;20044;-82
2024/01/17 02:03:54;;;;;;;12.27;7.28;;;;;;;;;;5080625;28;20075;-81
2024/01/17 02:06:23;;;;;;;13.10;7.63;;;;;;;;;;5082042;28;20490;-82
2024/01/17 02:08:55;;;;;;;11.18;7.18;;;;;;;;;;5072750;28;20135;-82
2024/01/17 02:11:22;;;;;;;14.27;7.15;;;;;;;;;;5081998;28;20048;-82
2024/01/17 02:13:50;;;;;;;11.85;7.05;;;;;;;;;;5081776;28;20055;-82
2024/01/17 02:16:18;;;;;;;17.88;7.50;;;;;;;;;;5081579;28;20048;-82
2024/01/17 02:18:46;;;;;;;13.02;7.55;;;;;;;;;;5081808;28;20494;-82
2024/01/17 02:21:14;;;;;;;12.38;7.57;;;;;;;;;;5064695;28;20482;-82
2024/01/17 02:23:42;;;;;;;20.02;7.57;;;;;;;;;;5081698;28;20048;-82
2024/01/17 02:26:09;;;;;;;15.82;8.40;;;;;;;;;;5081555;28;20108;-82
2024/01/17 02:28:36;;;;;;;14.10;7.70;;;;;;;;;;5081328;28;20052;-82
2024/01/17 02:31:04;;;;;;;11.05;7.30;;;;;;;;;;5082068;28;20052;-81
2024/01/17 02:33:32;;;;;;;17.83;8.10;;;;;;;;;;5080993;28;20405;-82
2024/01/17 02:36:00;;;;;;;18.38;7.57;;;;;;;;;;5080627;28;20049;-82
2024/01/17 02:38:27;;;;;;;16.35;7.57;;;;;;;;;;5082326;28;20045;-82
2024/01/17 02:40:54;;;;;;;13.77;7.93;;;;;;;;;;5072664;28;20045;-82
2024/01/17 02:43:22;;;;;;;18.98;8.40;;;;;;;;;;5081483;28;20056;-82
2024/01/17 02:45:49;;;;;;;16.02;8.07;;;;;;;;;;5083841;28;20059;-82
2024/01/17 02:48:16;;;;;;;16.45;8.43;;;;;;;;;;5083760;28;20600;-82
2024/01/17 02:50:44;;;;;;;15.02;7.47;;;;;;;;;;5084952;28;20055;-82
2024/01/17 02:53:11;;;;;;;17.60;7.65;;;;;;;;;;5086587;28;20414;-82
2024/01/17 02:55:39;;;;;;;14.48;7.47;;;;;;;;;;5088256;28;20098;-83
2024/01/17 02:58:06;;;;;;;12.68;7.30;;;;;;;;;;5089492;28;20052;-82
2024/01/17 03:00:33;;;;;;;15.90;8.57;;;;;;;;;;5089248;28;20527;-82
2024/01/17 03:03:01;;;;;;;12.65;7.38;;;;;;;;;;5088173;28;20063;-83
2024/01/17 03:05:28;;;;;;;15.60;7.78;;;;;;;;;;5083018;28;20118;-81
2024/01/17 03:07:55;;;;;;;13.82;7.47;;;;;;;;;;5090017;28;20086;-82
2024/01/17 03:10:23;;;;;;;17.27;8.35;;;;;;;;;;5089521;28;20048;-82
2024/01/17 03:12:50;;;;;;;15.70;7.80;;;;;;;;;;5088813;28;20075;-82
2024/01/17 03:15:17;;;;;;;15.13;7.10;;;;;;;;;;5089983;28;20055;-82
2024/01/17 03:17:44;;;;;;;18.63;7.97;;;;;;;;;;5088064;28;20087;-84
2024/01/17 03:20:12;;;;;;;15.00;7.82;;;;;;;;;;5088658;28;20070;-84
2024/01/17 03:22:40;;;;;;;17.00;7.05;;;;;;;;;;5088220;28;20090;-84
2024/01/17 03:25:08;;;;;;;11.18;7.65;;;;;;;;;;5079138;28;20048;-82
2024/01/17 03:27:35;;;;;;;12.65;7.10;;;;;;;;;;5079453;28;20507;-82
2024/01/17 03:30:03;;;;;;;15.50;7.60;;;;;;;;;;5078972;28;20044;-82
2024/01/17 03:32:31;;;;;;;12.63;6.45;;;;;;;;;;5079625;28;20481;-82
2024/01/17 03:34:58;;;;;;;17.10;7.68;;;;;;;;;;5079671;28;20109;-82
2024/01/17 03:37:26;;;;;;;11.52;6.80;;;;;;;;;;5079123;28;20055;-82
2024/01/17 03:39:53;;;;;;;14.88;7.80;;;;;;;;;;5078913;28;20089;-82
2024/01/17 03:42:20;;;;;;;19.40;7.22;;;;;;;;;;5078557;28;20440;-81
2024/01/17 03:44:47;;;;;;;15.27;6.55;;;;;;;;;;5078149;28;20088;-81
2024/01/17 03:47:15;;;;;;;15.30;7.45;;;;;;;;;;5077838;28;20087;-81
2024/01/17 03:49:42;;;;;;;12.88;7.65;;;;;;;;;;5079486;28;20048;-81
2024/01/17 03:52:09;;;;;;;15.35;7.68;;;;;;;;;;5077883;28;20108;-81
2024/01/17 03:54:36;;;;;;;12.48;6.60;;;;;;;;;;5077940;28;20493;-82
2024/01/17 03:57:04;;;;;;;17.25;7.07;;;;;;;;;;5077756;28;20047;-82
2024/01/17 03:59:32;;;;;;;13.23;7.55;;;;;;;;;;5077854;28;20498;-84
2024/01/17 04:02:00;;;;;;;13.10;7.43;;;;;;;;;;5078894;28;20117;-82
2024/01/17 04:04:27;;;;;;;13.77;6.95;;;;;;;;;;5077602;28;20049;-81
2024/01/17 04:06:55;;;;;;;18.42;8.27;;;;;;;;;;5077149;28;20063;-82
2024/01/17 04:09:22;;;;;;;13.15;7.28;;;;;;;;;;5071463;28;20497;-82
2024/01/17 04:11:50;;;;;;;20.70;8.00;;;;;;;;;;5076866;28;20112;-82
2024/01/17 04:14:17;;;;;;;16.38;7.25;;;;;;;;;;5076622;28;20064;-82
2024/01/17 04:16:45;;;;;;;16.27;7.30;;;;;;;;;;5077426;28;20051;-82
2024/01/17 04:19:12;;;;;;;17.83;8.05;;;;;;;;;;5079380;28;20048;-84
2024/01/17 04:21:39;;;;;;;20.55;8.48;;;;;;;;;;5076509;28;20044;-82
2024/01/17 04:24:07;;;;;;;18.42;9.18;;;;;;;;;;5076745;28;20052;-82
2024/01/17 04:26:34;;;;;;;17.00;8.38;;;;;;;;;;5077528;28;20067;-81
2024/01/17 04:29:01;;;;;;;15.23;8.45;;;;;;;;;;5080419;28;20059;-81
2024/01/17 04:31:29;;;;;;;21.15;9.60;;;;;;;;;;5080701;28;20258;-82
2024/01/17 04:33:57;;;;;;;18.55;9.45;;;;;;;;;;5080664;28;20048;-82
2024/01/17 04:36:28;;;;;;;22.80;11.75;;;;;;;;;;5081051;28;20498;-82
2024/01/17 04:38:55;;;;;;;23.40;12.85;;;;;;;;;;5081826;28;20557;-81
2024/01/17 04:41:22;;;;;;;24.92;14.77;;;;;;;;;;5081058;28;20044;-80
2024/01/17 04:43:50;;;;;;;26.40;15.75;;;;;;;;;;5081175;28;20055;-81
2024/01/17 04:46:17;;;;;;;23.45;13.43;;;;;;;;;;5080823;28;20052;-82
2024/01/17 04:48:45;;;;;;;21.45;11.45;;;;;;;;;;5082297;28;20075;-82
2024/01/17 04:51:13;;;;;;;19.52;10.27;;;;;;;;;;5081672;28;20079;-82
2024/01/17 04:53:44;;;;;;;17.52;10.63;;;;;;;;;;5080995;28;20040;-82
2024/01/17 04:56:13;;;;;;;20.05;11.15;;;;;;;;;;5081773;28;20076;-81
2024/01/17 04:58:40;;;;;;;21.20;9.90;;;;;;;;;;5081059;28;20109;-80
2024/01/17 05:01:08;;;;;;;17.90;10.02;;;;;;;;;;5079745;28;20053;-81
2024/01/17 05:03:36;;;;;;;19.98;11.18;;;;;;;;;;5080054;28;20048;-82
2024/01/17 05:06:03;;;;;;;18.50;9.55;;;;;;;;;;5079264;28;20048;-82
2024/01/17 05:08:31;;;;;;;17.17;9.55;;;;;;;;;;5080371;28;20048;-82
2024/01/17 05:10:58;;;;;;;15.77;9.10;;;;;;;;;;5078739;28;20098;-81
2024/01/17 05:13:25;;;;;;;20.50;9.95;;;;;;;;;;5078740;28;20105;-81
2024/01/17 05:15:52;;;;;;;19.23;9.52;;;;;;;;;;5078603;28;20102;-82
2024/01/17 05:18:20;;;;;;;16.13;9.95;;;;;;;;;;5078451;28;20070;-82
2024/01/17 05:20:47;;;;;;;15.82;9.27;;;;;;;;;;5080523;28;20048;-81
2024/01/17 05:23:15;;;;;;;18.02;8.85;;;;;;;;;;5071820;28;20051;-82
2024/01/17 05:25:42;;;;;;;21.90;12.25;;;;;;;;;;5078974;28;20391;-81
2024/01/17 05:28:09;;;;;;;19.95;10.77;;;;;;;;;;5078612;28;20056;-81
2024/01/17 05:30:36;;;;;;;34.88;18.52;;;;;;;;;;5078530;28;20482;-81
2024/01/17 05:33:04;;;;;;;23.48;13.45;;;;;;;;;;5079708;28;20093;-82
2024/01/17 05:35:32;;;;;;;27.92;13.75;;;;;;;;;;5080487;28;20127;-82
2024/01/17 05:37:59;;;;;;;42.05;21.67;;;;;;;;;;5079481;28;20113;-81
2024/01/17 05:40:27;;;;;;;28.15;16.90;;;;;;;;;;5080178;28;20072;-82
2024/01/17 05:42:55;;;;;;;20.88;12.27;;;;;;;;;;5078772;28;20417;-84
2024/01/17 05:45:23;;;;;;;23.70;14.48;;;;;;;;;;5079199;28;20083;-82
2024/01/17 05:47:50;;;;;;;19.83;11.80;;;;;;;;;;5078761;28;20117;-82
2024/01/17 05:50:17;;;;;;;22.27;12.00;;;;;;;;;;5079004;28;20080;-82
2024/01/17 05:52:48;;;;;;;16.27;9.30;;;;;;;;;;5078269;28;20075;-82
2024/01/17 05:55:17;;;;;;;13.27;8.50;;;;;;;;;;5071460;28;20098;-82
2024/01/17 05:57:44;;;;;;;14.30;9.45;;;;;;;;;;5078282;28;20049;-82
2024/01/17 06:00:12;;;;;;;19.13;10.23;;;;;;;;;;5079338;28;20044;-82
2024/01/17 06:02:40;;;;;;;18.38;9.68;;;;;;;;;;5078745;28;20606;-81
2024/01/17 06:05:08;;;;;;;19.00;9.75;;;;;;;;;;5077425;28;20490;-81
2024/01/17 06:07:35;;;;;;;17.70;9.30;;;;;;;;;;5077853;28;20128;-82
2024/01/17 06:10:04;;;;;;;16.50;9.25;;;;;;;;;;5078127;28;20117;-82
2024/01/17 06:12:32;;;;;;;14.73;9.18;;;;;;;;;;5078523;28;20143;-81
2024/01/17 06:15:01;;;;;;;20.83;9.55;;;;;;;;;;5077390;28;20131;-81
2024/01/17 06:17:29;;;;;;;14.52;9.02;;;;;;;;;;5077517;28;20131;-82
2024/01/17 06:19:56;;;;;;;18.05;9.05;;;;;;;;;;5077460;28;20048;-81
2024/01/17 06:22:24;;;;;;;18.25;10.10;;;;;;;;;;5079009;28;20040;-82
2024/01/17 06:24:51;;;;;;;19.33;9.75;;;;;;;;;;5077115;28;20048;-81
2024/01/17 06:27:18;;;;;;;19.13;10.70;;;;;;;;;;5077508;28;20559;-82
2024/01/17 06:29:46;;;;;;;19.10;10.98;;;;;;;;;;5077464;28;20083;-81
2024/01/17 06:32:14;;;;;;;26.08;11.15;;;;;;;;;;5076934;28;20044;-81
2024/01/17 06:34:43;;;;;;;25.13;12.15;;;;;;;;;;5076889;28;20044;-81
2024/01/17 06:37:10;;;;;;;25.45;12.70;;;;;;;;;;5077227;28;20080;-82
2024/01/17 06:39:38;;;;;;;21.45;11.93;;;;;;;;;;5060737;28;20056;-82
2024/01/17 06:42:05;;;;;;;42.72;15.00;;;;;;;;;;5076998;28;20045;-82
2024/01/17 06:44:33;;;;;;;31.33;13.15;;;;;;;;;;5077729;28;20084;-83
2024/01/17 06:47:00;;;;;;;35.28;13.65;;;;;;;;;;5076682;28;20060;-82
2024/01/17 06:49:28;;;;;;;26.88;12.48;;;;;;;;;;5076812;28;20059;-82
2024/01/17 06:51:56;;;;;;;28.90;14.25;;;;;;;;;;5076334;28;20052;-82
2024/01/17 06:54:23;;;;;;;28.63;13.50;;;;;;;;;;5076487;28;20063;-81
2024/01/17 06:56:51;;;;;;;29.42;13.82;;;;;;;;;;5076404;28;20102;-82
2024/01/17 06:59:19;;;;;;;28.17;12.65;;;;;;;;;;5076928;28;20060;-82
2024/01/17 07:01:46;;;;;;;26.08;13.45;;;;;;;;;;5076461;28;20055;-82
2024/01/17 07:04:13;;;;;;;28.42;13.43;;;;;;;;;;5069305;28;20052;-82
2024/01/17 07:06:41;;;;;;;24.20;12.30;;;;;;;;;;5077436;28;20056;-81
2024/01/17 07:09:10;;;;;;;30.75;15.55;;;;;;;;;;5078994;28;20121;-83
2024/01/17 07:11:37;;;;;;;27.60;14.20;;;;;;;;;;5078116;28;20045;-83
2024/01/17 07:14:05;;;;;;;36.25;14.65;;;;;;;;;;5079376;28;20052;-83
2024/01/17 07:16:32;;;;;;;30.10;14.98;;;;;;;;;;5078085;28;20053;-83
2024/01/17 07:19:01;;;;;;;31.50;15.27;;;;;;;;;;5078011;28;20561;-83
2024/01/17 07:21:28;;;;;;;31.45;14.73;;;;;;;;;;5077933;28;20402;-83
2024/01/17 07:23:55;;;;;;;33.00;15.18;;;;;;;;;;5061141;28;20048;-83
2024/01/17 07:26:23;;;;;;;28.67;15.13;;;;;;;;;;5078083;28;20061;-82
2024/01/17 07:28:50;;;;;;;30.92;15.75;;;;;;;;;;5077972;28;20449;-83
2024/01/17 07:31:17;;;;;;;38.42;18.13;;;;;;;;;;5077738;28;20052;-83
2024/01/17 07:33:44;;;;;;;49.90;21.05;;;;;;;;;;5077310;28;20516;-82
2024/01/17 07:36:12;;;;;;;49.53;21.98;;;;;;;;;;5077358;28;20526;-83
2024/01/17 07:38:39;;;;;;;49.00;21.80;;;;;;;;;;5077335;28;20421;-82
2024/01/17 07:41:06;;;;;;;48.65;20.42;;;;;;;;;;5078781;28;20040;-83
2024/01/17 07:43:34;;;;;;;42.35;18.92;;;;;;;;;;5077532;28;20452;-83
2024/01/17 07:46:01;;;;;;;37.45;17.70;;;;;;;;;;5069677;28;20053;-80
2024/01/17 07:48:28;;;;;;;34.33;16.50;;;;;;;;;;5078449;28;20071;-81
2024/01/17 07:50:57;;;;;;;38.17;16.90;;;;;;;;;;5084687;28;20078;-82
2024/01/17 07:53:26;;;;;;;49.08;20.02;;;;;;;;;;5084242;28;20111;-80
2024/01/17 07:55:55;;;;;;;47.85;20.40;;;;;;;;;;5086280;28;20117;-81
2024/01/17 07:58:23;;;;;;;44.17;20.88;;;;;;;;;;5085084;28;20076;-81
2024/01/17 08:00:50;;;;;;;43.85;19.98;;;;;;;;;;5084622;28;20045;-82
2024/01/17 08:03:17;;;;;;;47.33;22.45;;;;;;;;;;5088017;28;20108;-81
2024/01/17 08:05:45;;;;;;;35.65;18.23;;;;;;;;;;5088887;28;20056;-82
2024/01/17 08:08:13;;;;;;;22.85;13.05;;;;;;;;;;5088955;28;20053;-80
2024/01/17 08:10:40;;;;;;;23.60;13.23;;;;;;;;;;5087068;28;20501;-81
2024/01/17 08:13:07;;;;;;;21.52;13.50;;;;;;;;;;5085568;28;20048;-81
2024/01/17 08:15:34;;;;;;;17.17;10.43;;;;;;;;;;5083929;28;20072;-80
2024/01/17 08:18:03;;;;;;;13.98;9.43;;;;;;;;;;5083328;28;20083;-81
2024/01/17 08:20:31;;;;;;;12.48;8.90;;;;;;;;;;5083126;28;20049;-81
2024/01/17 08:22:59;;;;;;;13.38;9.38;;;;;;;;;;5083924;28;20045;-81
2024/01/17 08:25:26;;;;;;;14.43;7.78;;;;;;;;;;5083170;28;20098;-81
2024/01/17 08:27:57;;;;;;;10.27;7.65;;;;;;;;;;5083999;28;20464;-80
2024/01/17 08:30:27;;;;;;;10.00;7.43;;;;;;;;;;5082423;28;20052;-81
2024/01/17 08:32:55;;;;;;;13.88;8.60;;;;;;;;;;5081244;28;20059;-81
2024/01/17 08:35:22;;;;;;;11.60;8.20;;;;;;;;;;5079588;28;20045;-81
2024/01/17 08:37:49;;;;;;;9.63;7.43;;;;;;;;;;5079232;28;20049;-81
2024/01/17 08:40:17;;;;;;;10.25;7.47;;;;;;;;;;5077499;28;20122;-81
2024/01/17 08:42:44;;;;;;;12.70;8.07;;;;;;;;;;5077466;28;20118;-80
2024/01/17 08:45:12;;;;;;;11.93;7.90;;;;;;;;;;5077690;28;20520;-80
2024/01/17 08:47:44;;;;;;;11.75;8.23;;;;;;;;;;5077482;28;20044;-81
2024/01/17 08:50:14;;;;;;;11.55;8.07;;;;;;;;;;5079302;28;20106;-81
2024/01/17 08:52:42;;;;;;;15.30;9.20;;;;;;;;;;5078701;28;20133;-81
2024/01/17 08:55:09;;;;;;;10.65;7.93;;;;;;;;;;5077263;28;20079;-81
2024/01/17 08:57:37;;;;;;;10.88;6.95;;;;;;;;;;5079386;28;20044;-80
2024/01/17 09:00:06;;;;;;;11.65;8.43;;;;;;;;;;5077760;28;20551;-80
2024/01/17 09:02:33;;;;;;;12.45;8.25;;;;;;;;;;5077679;28;20056;-81
2024/01/17 09:05:01;;;;;;;9.93;7.30;;;;;;;;;;5069322;28;20460;-81
2024/01/17 09:07:29;;;;;;;14.98;7.97;;;;;;;;;;5078794;28;20148;-81
2024/01/17 09:10:00;;;;;;;13.75;8.25;;;;;;;;;;5077200;28;20560;-80
2024/01/17 09:12:27;;;;;;;10.85;7.35;;;;;;;;;;5077423;28;20091;-80
2024/01/17 09:14:54;;;;;;;13.63;8.70;;;;;;;;;;5076903;28;20040;-80
2024/01/17 09:17:23;;;;;;;14.45;8.23;;;;;;;;;;5078050;28;20452;-80
2024/01/17 09:19:50;;;;;;;11.35;7.85;;;;;;;;;;5077245;28;20106;-81
2024/01/17 09:22:18;;;;;;;13.05;8.20;;;;;;;;;;5077535;28;20052;-80
2024/01/17 09:24:45;;;;;;;10.73;8.10;;;;;;;;;;5078298;28;20045;-80
2024/01/17 09:27:12;;;;;;;12.45;9.05;;;;;;;;;;5077377;28;20049;-80
2024/01/17 09:29:40;;;;;;;12.38;8.60;;;;;;;;;;5078236;28;20059;-79
2024/01/17 09:32:08;;;;;;;14.80;8.23;;;;;;;;;;5078039;28;20092;-80
2024/01/17 09:34:36;;;;;;;10.82;7.85;;;;;;;;;;5078601;28;20075;-80
2024/01/17 09:37:05;;;;;;;13.00;8.52;;;;;;;;;;5077806;28;20104;-80
2024/01/17 09:39:32;;;;;;;11.95;9.05;;;;;;;;;;5078153;28;20048;-80
2024/01/17 09:42:00;;;;;;;11.68;8.65;;;;;;;;;;5077397;28;20166;-80
2024/01/17 09:44:27;;;;;;;12.52;9.13;;;;;;;;;;5074494;28;20509;-80
2024/01/17 09:46:58;;;;;;;12.38;8.57;;;;;;;;;;5066302;28;20044;-80
2024/01/17 09:49:29;;;;;;;13.50;9.00;;;;;;;;;;5077305;28;20498;-79
2024/01/17 09:51:57;;;;;;;10.85;8.55;;;;;;;;;;5077715;28;20045;-80
2024/01/17 09:54:25;;;;;;;12.67;8.30;;;;;;;;;;5077782;28;20106;-80
2024/01/17 09:56:56;;;;;;;17.17;9.82;;;;;;;;;;5077489;28;20049;-80
2024/01/17 09:59:33;;;;;;;14.27;8.40;;;;;;;;;;5078882;28;20082;-82
2024/01/17 10:02:01;;;;;;;12.15;8.02;;;;;;;;;;5080100;28;20045;-82
2024/01/17 10:04:28;;;;;;;9.65;7.85;;;;;;;;;;5084349;28;20048;-82
2024/01/17 10:06:57;;;;;;;13.20;8.50;;;;;;;;;;5082551;28;20051;-81
2024/01/17 10:09:25;;;;;;;10.57;7.68;;;;;;;;;;5082597;28;20417;-82
2024/01/17 10:11:52;;;;;;;11.77;7.85;;;;;;;;;;5080563;28;20494;-82
2024/01/17 10:14:23;;;;;;;9.32;7.35;;;;;;;;;;5079120;28;20054;-82
2024/01/17 10:16:50;;;;;;;12.18;8.25;;;;;;;;;;5079789;28;20048;-82
2024/01/17 10:19:18;;;;;;;10.88;7.55;;;;;;;;;;5079241;28;20044;-82
2024/01/17 10:21:46;;;;;;;10.30;8.02;;;;;;;;;;5079270;28;20044;-82
2024/01/17 10:24:14;;;;;;;11.52;8.00;;;;;;;;;;5078945;28;20045;-82
2024/01/17 10:26:42;;;;;;;11.15;8.90;;;;;;;;;;5080039;28;20123;-81
2024/01/17 10:29:11;;;;;;;11.32;7.95;;;;;;;;;;5080390;28;20425;-81
2024/01/17 10:31:39;;;;;;;9.65;7.43;;;;;;;;;;5079045;28;20059;-81
2024/01/17 10:34:07;;;;;;;9.80;7.25;;;;;;;;;;5080030;28;20467;-82
2024/01/17 10:36:42;;;;;;;9.25;6.93;;;;;;;;;;5079906;28;20079;-82
2024/01/17 10:39:11;;;;;;;12.52;8.10;;;;;;;;;;5080354;28;20106;-82
2024/01/17 10:41:54;;;;;;;10.23;7.68;;;;;;;;;;5079026;28;20044;-82
2024/01/17 10:44:22;;;;;;;10.80;7.32;;;;;;;;;;5074056;28;20102;-82
2024/01/17 10:46:53;;;;;;;12.55;7.55;;;;;;;;;;5083422;28;20483;-81
2024/01/17 10:49:21;;;;;;;10.25;7.63;;;;;;;;;;5082535;28;20052;-79
2024/01/17 10:51:53;;;;;;;12.40;8.23;;;;;;;;;;5079925;28;20053;-80
2024/01/17 10:54:26;;;;;;;10.95;7.25;;;;;;;;;;5075530;28;20080;-80
2024/01/17 10:56:54;;;;;;;12.13;7.25;;;;;;;;;;5075496;28;20101;-80
2024/01/17 10:59:22;;;;;;;10.60;7.53;;;;;;;;;;5074925;28;20048;-79
2024/01/17 11:01:51;;;;;;;11.68;7.55;;;;;;;;;;5076432;28;20124;-80
2024/01/17 11:04:24;;;;;;;10.95;6.97;;;;;;;;;;5074497;28;20486;-79
2024/01/17 11:06:52;;;;;;;11.18;7.82;;;;;;;;;;5074087;28;20140;-79
2024/01/17 11:09:22;;;;;;;9.65;7.60;;;;;;;;;;5075296;28;20064;-80
2024/01/17 11:11:50;;;;;;;9.65;7.07;;;;;;;;;;5076145;28;20114;-80
2024/01/17 11:14:17;;;;;;;8.98;6.90;;;;;;;;;;5075595;28;20082;-79
2024/01/17 11:16:52;;;;;;;8.38;7.38;;;;;;;;;;5074210;28;20049;-80
2024/01/17 11:19:20;;;;;;;8.35;5.95;;;;;;;;;;5067213;28;20044;-80
2024/01/17 11:21:48;;;;;;;8.02;6.45;;;;;;;;;;5076362;28;20040;-80
2024/01/17 11:24:21;;;;;;;8.15;6.53;;;;;;;;;;5066824;28;20444;-80
2024/01/17 11:26:48;;;;;;;;;;;;;;;;;;5074968;28;20135;-80
2024/01/17 11:29:18;;;;;;;8.57;6.38;;;;;;;;;;5075544;28;19920;-80
2024/01/17 11:32:12;;;;;;;8.15;6.65;;;;;;;;;;5074281;28;20106;-80
2024/01/17 11:34:39;;;;;;;;;;;;;;;;;;5070336;28;20513;-80
2024/01/17 11:37:07;;;;;;;8.65;6.35;;;;;;;;;;5073622;28;19920;-80
2024/01/17 11:39:34;;;;;;;7.18;6.10;;;;;;;;;;5074771;28;20098;-80
2024/01/17 11:42:01;;;;;;;14.27;6.05;;;;;;;;;;5074498;28;20049;-80
2024/01/17 11:44:29;;;;;;;7.55;6.30;;;;;;;;;;5075655;28;20045;-80
2024/01/17 11:46:57;;;;;;;8.30;6.40;;;;;;;;;;5074177;28;20048;-80
2024/01/17 11:49:41;;;;;;;8.23;6.80;;;;;;;;;;5070763;28;20422;-80
2024/01/17 11:52:26;;;;;;;8.70;6.60;;;;;;;;;;5074455;28;20160;-80
2024/01/17 11:54:54;;;;;;;9.15;6.18;;;;;;;;;;5074554;28;20048;-80
2024/01/17 11:57:21;;;;;;;9.32;6.80;;;;;;;;;;5074344;28;20061;-80
2024/01/17 12:00:09;;;;;;;8.55;6.57;;;;;;;;;;5074264;28;20059;-80
2024/01/17 12:02:38;;;;;;;10.32;7.05;;;;;;;;;;5070675;28;20056;-80
2024/01/17 12:05:07;;;;;;;6.30;5.70;;;;;;;;;;5075226;28;20056;-80
2024/01/17 12:07:38;;;;;;;8.30;6.75;;;;;;;;;;5075039;28;20049;-80
2024/01/17 12:10:13;;;;;;;7.90;7.07;;;;;;;;;;5074933;28;20525;-80
2024/01/17 12:12:44;;;;;;;8.75;7.40;;;;;;;;;;5073771;28;20563;-80
2024/01/17 12:15:12;;;;;;;9.25;7.28;;;;;;;;;;5071835;28;20449;-80
2024/01/17 12:17:41;;;;;;;11.30;8.13;;;;;;;;;;5069331;28;20045;-80
2024/01/17 12:20:09;;;;;;;16.52;10.10;;;;;;;;;;5075006;28;20083;-80
2024/01/17 12:22:36;;;;;;;17.27;12.25;;;;;;;;;;5074428;28;20051;-80
2024/01/17 12:25:04;;;;;;;17.80;10.65;;;;;;;;;;5073530;28;20544;-80
2024/01/17 12:27:33;;;;;;;17.50;11.50;;;;;;;;;;5074643;28;20040;-80
2024/01/17 12:30:04;;;;;;;13.23;9.68;;;;;;;;;;5073619;28;20508;-80
2024/01/17 12:32:32;;;;;;;14.02;9.20;;;;;;;;;;5074787;28;20048;-80
2024/01/17 12:35:00;;;;;;;13.43;9.32;;;;;;;;;;5073894;28;20075;-80
2024/01/17 12:37:31;;;;;;;11.15;7.85;;;;;;;;;;5074502;28;20040;-80
2024/01/17 12:39:58;;;;;;;10.32;6.65;;;;;;;;;;5074945;28;20053;-80
2024/01/17 12:42:25;;;;;;;7.93;5.93;;;;;;;;;;5073961;28;20123;-80
2024/01/17 12:44:53;;;;;;;12.65;8.43;;;;;;;;;;5073938;28;20497;-80
2024/01/17 12:47:20;;;;;;;9.00;7.22;;;;;;;;;;5074213;28;20048;-80
2024/01/17 12:49:47;;;;;;;11.27;7.75;;;;;;;;;;5077690;28;20102;-80
2024/01/17 12:52:18;;;;;;;10.00;7.63;;;;;;;;;;5069540;28;20512;-80
2024/01/17 12:54:46;;;;;;;8.45;6.90;;;;;;;;;;5076943;28;20425;-80
2024/01/17 12:57:13;;;;;;;9.05;6.07;;;;;;;;;;5077928;28;20044;-80
2024/01/17 12:59:41;;;;;;;6.05;5.45;;;;;;;;;;5078781;28;20045;-80
2024/01/17 13:02:14;;;;;;;5.93;5.43;;;;;;;;;;5077675;28;20056;-80
2024/01/17 13:04:42;;;;;;;6.53;5.43;;;;;;;;;;5077268;28;20417;-79
2024/01/17 13:07:24;;;;;;;7.13;6.43;;;;;;;;;;5079674;28;20064;-79
2024/01/17 13:09:52;;;;;;;5.95;5.35;;;;;;;;;;5082244;28;20052;-80
2024/01/17 13:12:20;;;;;;;6.32;5.72;;;;;;;;;;5078494;28;20049;-80
2024/01/17 13:14:52;;;;;;;4.93;4.35;;;;;;;;;;5077185;28;20105;-80
2024/01/17 13:17:20;;;;;;;5.88;4.88;;;;;;;;;;5077380;28;20045;-80
2024/01/17 13:19:47;;;;;;;5.75;4.78;;;;;;;;;;5079163;28;20391;-79
2024/01/17 13:22:17;;;;;;;5.25;4.85;;;;;;;;;;5077707;28;20458;-80
2024/01/17 13:24:44;;;;;;;4.22;3.83;;;;;;;;;;5078137;28;20044;-80
2024/01/17 13:27:12;;;;;;;4.07;3.78;;;;;;;;;;5077498;28;20504;-80
2024/01/17 13:29:39;;;;;;;4.18;3.80;;;;;;;;;;5077288;28;20044;-80
2024/01/17 13:32:06;;;;;;;6.20;3.90;;;;;;;;;;5076760;28;20049;-80
2024/01/17 13:34:34;;;;;;;4.18;3.88;;;;;;;;;;5077140;28;20048;-80
2024/01/17 13:37:02;;;;;;;3.97;3.67;;;;;;;;;;5077514;28;20041;-80
2024/01/17 13:39:29;;;;;;;4.22;3.83;;;;;;;;;;5078834;28;20461;-80
2024/01/17 13:41:57;;;;;;;6.30;4.70;;;;;;;;;;5077684;28;20068;-80
2024/01/17 13:44:27;;;;;;;5.75;4.45;;;;;;;;;;5077154;28;20041;-80
2024/01/17 13:46:54;;;;;;;4.95;4.50;;;;;;;;;;5076652;28;20102;-80
2024/01/17 13:49:25;;;;;;;4.55;4.15;;;;;;;;;;5077228;28;20048;-80
2024/01/17 13:51:54;;;;;;;7.35;4.90;;;;;;;;;;5077184;28;20117;-80
2024/01/17 13:54:23;;;;;;;6.82;5.00;;;;;;;;;;5077961;28;20052;-80
2024/01/17 13:56:50;;;;;;;6.53;4.72;;;;;;;;;;5076888;28;20048;-80
2024/01/17 13:59:18;;;;;;;4.95;4.45;;;;;;;;;;5076548;28;20052;-81
2024/01/17 14:01:46;;;;;;;4.00;3.70;;;;;;;;;;5078327;28;20044;-80
2024/01/17 14:04:14;;;;;;;3.80;3.50;;;;;;;;;;5077930;28;20124;-80
2024/01/17 14:06:41;;;;;;;4.22;3.83;;;;;;;;;;5077053;28;20052;-80
2024/01/17 14:09:09;;;;;;;4.97;4.00;;;;;;;;;;5078930;28;20048;-80
2024/01/17 14:11:38;;;;;;;4.57;4.20;;;;;;;;;;5078131;28;20490;-81
2024/01/17 14:14:07;;;;;;;4.10;3.80;;;;;;;;;;5078286;28;20383;-80
2024/01/17 14:16:34;;;;;;;3.80;3.50;;;;;;;;;;5077691;28;20052;-80
2024/01/17 14:19:02;;;;;;;5.72;5.18;;;;;;;;;;5077073;28;20045;-80
2024/01/17 14:21:30;;;;;;;5.57;5.07;;;;;;;;;;5078356;28;20045;-80
2024/01/17 14:23:57;;;;;;;7.82;6.35;;;;;;;;;;5076803;28;20048;-81
2024/01/17 14:26:25;;;;;;;8.80;5.30;;;;;;;;;;5077448;28;20048;-80
2024/01/17 14:28:52;;;;;;;9.30;5.10;;;;;;;;;;5076268;28;20402;-80
2024/01/17 14:31:19;;;;;;;6.43;4.60;;;;;;;;;;5077053;28;20106;-81
2024/01/17 14:33:48;;;;;;;5.65;4.00;;;;;;;;;;5078163;28;20048;-81
2024/01/17 14:36:16;;;;;;;7.38;4.75;;;;;;;;;;5068857;28;20060;-80